createdAt,value
2018-06-03T00:01:14.453Z,5.33
2018-06-03T00:03:43.009Z,4.63
2018-06-03T00:06:11.566Z,5.60
2018-06-03T00:08:40.063Z,5.07
2018-06-03T00:11:08.576Z,4.60
2018-06-03T00:13:37.074Z,5.50
2018-06-03T00:16:05.677Z,5.60
2018-06-03T00:18:34.192Z,6.30
2018-06-03T00:21:13.833Z,5.50
2018-06-03T00:23:42.619Z,5.57
2018-06-03T00:26:11.144Z,5.43
2018-06-03T00:28:39.641Z,6.70
2018-06-03T00:31:08.295Z,5.50
2018-06-03T00:33:36.777Z,5.80
2018-06-03T00:37:13.913Z,6.37
2018-06-03T00:39:42.496Z,6.47
2018-06-03T00:42:10.981Z,5.30
2018-06-03T00:44:39.449Z,6.27
2018-06-03T00:47:07.957Z,5.77
2018-06-03T00:49:36.426Z,5.73
2018-06-03T00:52:04.994Z,5.67
2018-06-03T00:54:33.478Z,4.97
2018-06-03T00:57:09.830Z,5.30
2018-06-03T00:59:38.202Z,5.60
2018-06-03T01:02:06.741Z,5.60
2018-06-03T01:04:35.229Z,5.80
2018-06-03T01:07:03.830Z,6.10
2018-06-03T01:09:32.348Z,5.93
2018-06-03T01:12:00.854Z,6.20
2018-06-03T01:14:29.363Z,6.00
2018-06-03T01:16:57.904Z,6.00
2018-06-03T01:19:26.476Z,5.90
2018-06-03T01:21:55.005Z,6.10
2018-06-03T01:24:23.485Z,6.33
2018-06-03T01:26:51.998Z,6.77
2018-06-03T01:29:20.478Z,6.20
2018-06-03T01:31:49.074Z,6.97
2018-06-03T01:34:17.541Z,6.33
2018-06-03T01:36:46.074Z,6.80
2018-06-03T01:42:05.034Z,6.03
2018-06-03T01:44:33.537Z,7.73
2018-06-03T01:47:02.080Z,6.53
2018-06-03T01:49:30.577Z,6.63
2018-06-03T01:51:59.030Z,6.47
2018-06-03T01:54:27.533Z,7.00
2018-06-03T01:56:56.022Z,6.10
2018-06-03T01:59:24.538Z,6.97
2018-06-03T02:01:53.010Z,7.07
2018-06-03T02:04:21.518Z,7.87
2018-06-03T02:06:50.041Z,7.37
2018-06-03T02:09:18.565Z,7.27
2018-06-03T02:11:47.054Z,7.53
2018-06-03T02:14:15.602Z,7.80
2018-06-03T02:16:44.094Z,7.70
2018-06-03T02:19:12.628Z,6.97
2018-06-03T02:21:41.122Z,7.37
2018-06-03T02:24:09.658Z,7.20
